sensor_id;sensor_type;location;lat;lon;timestamp;pressure;altitude;pressure_sealevel;temperature;humidity
53719;BME280;39616;48.872;9.390;2023-04-21T00:00:58;98027.63;;;2.54;100.00
53719;BME280;39616;48.872;9.390;2023-04-21T00:03:29;98029.81;;;2.57;100.00
53719;BME280;39616;48.872;9.390;2023-04-21T00:06:03;98032.19;;;2.53;100.00
53719;BME280;39616;48.872;9.390;2023-04-21T00:08:38;98020.97;;;2.56;100.00
53719;BME280;39616;48.872;9.390;2023-04-21T00:11:09;98021.56;;;2.58;100.00
53719;BME280;39616;48.872;9.390;2023-04-21T00:13:39;98011.88;;;2.57;100.00
53719;BME280;39616;48.872;9.390;2023-04-21T00:16:10;98013.75;;;2.57;100.00
53719;BME280;39616;48.872;9.390;2023-04-21T00:18:40;98013.84;;;2.62;100.00
53719;BME280;39616;48.872;9.390;2023-04-21T00:21:11;98011.69;;;2.64;100.00
53719;BME280;39616;48.872;9.390;2023-04-21T00:23:41;98001.28;;;2.67;100.00
53719;BME280;39616;48.872;9.390;2023-04-21T00:26:11;98003.75;;;2.74;100.00
53719;BME280;39616;48.872;9.390;2023-04-21T00:28:42;98001.66;;;2.76;100.00
53719;BME280;39616;48.872;9.390;2023-04-21T00:31:12;97996.06;;;2.83;100.00
53719;BME280;39616;48.872;9.390;2023-04-21T00:33:42;97995.84;;;2.84;100.00
53719;BME280;39616;48.872;9.390;2023-04-21T00:36:13;97992.88;;;2.86;100.00
53719;BME280;39616;48.872;9.390;2023-04-21T00:38:43;97994.50;;;2.87;100.00
53719;BME280;39616;48.872;9.390;2023-04-21T00:41:13;97991.22;;;2.80;100.00
53719;BME280;39616;48.872;9.390;2023-04-21T00:44:19;97990.94;;;2.76;100.00
53719;BME280;39616;48.872;9.390;2023-04-21T00:46:49;97988.50;;;2.75;100.00
53719;BME280;39616;48.872;9.390;2023-04-21T00:49:21;97990.88;;;2.71;100.00
53719;BME280;39616;48.872;9.390;2023-04-21T00:51:53;97988.19;;;2.71;100.00
53719;BME280;39616;48.872;9.390;2023-04-21T00:54:24;97985.28;;;2.73;100.00
53719;BME280;39616;48.872;9.390;2023-04-21T00:56:55;97984.75;;;2.76;100.00
53719;BME280;39616;48.872;9.390;2023-04-21T00:59:27;97980.47;;;2.75;100.00
53719;BME280;39616;48.872;9.390;2023-04-21T01:01:57;97978.34;;;2.77;100.00
53719;BME280;39616;48.872;9.390;2023-04-21T01:04:28;97974.88;;;2.76;100.00
53719;BME280;39616;48.872;9.390;2023-04-21T01:07:05;97979.97;;;2.78;100.00
53719;BME280;39616;48.872;9.390;2023-04-21T01:09:36;97973.31;;;2.80;100.00
53719;BME280;39616;48.872;9.390;2023-04-21T01:12:09;97975.00;;;2.92;100.00
53719;BME280;39616;48.872;9.390;2023-04-21T01:14:40;97970.75;;;2.96;100.00
53719;BME280;39616;48.872;9.390;2023-04-21T01:17:10;97970.44;;;2.92;100.00
53719;BME280;39616;48.872;9.390;2023-04-21T01:19:41;97973.44;;;2.96;100.00
53719;BME280;39616;48.872;9.390;2023-04-21T01:22:12;97971.00;;;2.94;100.00
53719;BME280;39616;48.872;9.390;2023-04-21T01:24:46;97959.97;;;2.90;100.00
53719;BME280;39616;48.872;9.390;2023-04-21T01:27:18;97960.53;;;2.93;100.00
53719;BME280;39616;48.872;9.390;2023-04-21T01:29:50;97957.91;;;2.98;100.00
53719;BME280;39616;48.872;9.390;2023-04-21T01:32:23;97958.47;;;3.00;100.00
53719;BME280;39616;48.872;9.390;2023-04-21T01:34:55;97956.00;;;2.93;100.00
53719;BME280;39616;48.872;9.390;2023-04-21T01:37:29;97955.19;;;2.93;100.00
53719;BME280;39616;48.872;9.390;2023-04-21T01:40:02;97956.00;;;2.93;100.00
53719;BME280;39616;48.872;9.390;2023-04-21T01:42:37;97951.91;;;2.85;100.00
53719;BME280;39616;48.872;9.390;2023-04-21T01:45:09;97951.66;;;2.87;100.00
53719;BME280;39616;48.872;9.390;2023-04-21T01:47:39;97953.22;;;2.83;100.00
53719;BME280;39616;48.872;9.390;2023-04-21T01:50:10;97961.75;;;2.80;100.00
53719;BME280;39616;48.872;9.390;2023-04-21T01:52:40;97966.41;;;2.89;100.00
53719;BME280;39616;48.872;9.390;2023-04-21T01:55:11;97958.44;;;2.95;100.00
53719;BME280;39616;48.872;9.390;2023-04-21T01:57:41;97949.03;;;2.92;100.00
53719;BME280;39616;48.872;9.390;2023-04-21T02:00:12;97950.94;;;2.97;100.00
53719;BME280;39616;48.872;9.390;2023-04-21T02:02:42;97960.34;;;2.99;100.00
53719;BME280;39616;48.872;9.390;2023-04-21T02:05:13;97956.56;;;2.95;100.00
53719;BME280;39616;48.872;9.390;2023-04-21T02:07:43;97956.31;;;3.02;100.00
53719;BME280;39616;48.872;9.390;2023-04-21T02:10:14;97960.88;;;3.01;100.00
53719;BME280;39616;48.872;9.390;2023-04-21T02:12:44;97964.03;;;2.93;100.00
53719;BME280;39616;48.872;9.390;2023-04-21T02:15:14;97963.94;;;2.83;100.00
53719;BME280;39616;48.872;9.390;2023-04-21T02:17:45;97965.72;;;2.72;100.00
53719;BME280;39616;48.872;9.390;2023-04-21T02:20:15;97969.44;;;2.66;100.00
53719;BME280;39616;48.872;9.390;2023-04-21T02:22:46;97969.63;;;2.59;100.00
53719;BME280;39616;48.872;9.390;2023-04-21T02:25:16;97958.34;;;2.57;100.00
53719;BME280;39616;48.872;9.390;2023-04-21T02:27:46;97955.03;;;2.45;100.00
53719;BME280;39616;48.872;9.390;2023-04-21T02:30:17;97960.56;;;2.38;100.00
53719;BME280;39616;48.872;9.390;2023-04-21T02:32:47;97962.13;;;2.34;100.00
53719;BME280;39616;48.872;9.390;2023-04-21T02:35:17;97964.81;;;2.34;100.00
53719;BME280;39616;48.872;9.390;2023-04-21T02:37:48;97964.81;;;2.34;100.00
53719;BME280;39616;48.872;9.390;2023-04-21T02:40:18;97959.16;;;2.31;100.00
53719;BME280;39616;48.872;9.390;2023-04-21T02:42:48;97954.31;;;2.28;100.00
53719;BME280;39616;48.872;9.390;2023-04-21T02:45:18;97955.94;;;2.29;100.00
53719;BME280;39616;48.872;9.390;2023-04-21T02:47:49;97954.31;;;2.28;100.00
53719;BME280;39616;48.872;9.390;2023-04-21T02:50:19;97956.38;;;2.21;100.00
53719;BME280;39616;48.872;9.390;2023-04-21T02:52:49;97956.91;;;2.17;100.00
53719;BME280;39616;48.872;9.390;2023-04-21T02:55:20;97966.44;;;2.13;100.00
53719;BME280;39616;48.872;9.390;2023-04-21T02:57:51;97969.09;;;2.08;100.00
53719;BME280;39616;48.872;9.390;2023-04-21T03:00:22;97972.75;;;2.02;100.00
53719;BME280;39616;48.872;9.390;2023-04-21T03:02:52;97970.19;;;1.90;100.00
53719;BME280;39616;48.872;9.390;2023-04-21T03:05:22;97967.00;;;1.88;100.00
53719;BME280;39616;48.872;9.390;2023-04-21T03:07:53;97962.56;;;1.77;100.00
53719;BME280;39616;48.872;9.390;2023-04-21T03:10:23;97967.03;;;1.72;100.00
53719;BME280;39616;48.872;9.390;2023-04-21T03:12:53;97965.59;;;1.64;100.00
53719;BME280;39616;48.872;9.390;2023-04-21T03:15:25;97961.22;;;1.58;100.00
53719;BME280;39616;48.872;9.390;2023-04-21T03:17:55;97956.13;;;1.56;100.00
53719;BME280;39616;48.872;9.390;2023-04-21T03:20:25;97958.81;;;1.56;100.00
53719;BME280;39616;48.872;9.390;2023-04-21T03:22:56;97957.19;;;1.55;100.00
53719;BME280;39616;48.872;9.390;2023-04-21T03:25:26;97952.56;;;1.51;100.00
53719;BME280;39616;48.872;9.390;2023-04-21T03:27:57;97948.28;;;1.50;100.00
53719;BME280;39616;48.872;9.390;2023-04-21T03:30:27;97944.06;;;1.54;100.00
53719;BME280;39616;48.872;9.390;2023-04-21T03:32:57;97944.56;;;1.51;100.00
53719;BME280;39616;48.872;9.390;2023-04-21T03:35:28;97932.56;;;1.53;100.00
53719;BME280;39616;48.872;9.390;2023-04-21T03:37:59;97935.03;;;1.55;100.00
53719;BME280;39616;48.872;9.390;2023-04-21T03:40:30;97936.84;;;1.54;100.00
53719;BME280;39616;48.872;9.390;2023-04-21T03:43:00;97945.56;;;1.44;100.00
53719;BME280;39616;48.872;9.390;2023-04-21T03:45:30;97942.09;;;1.44;100.00
53719;BME280;39616;48.872;9.390;2023-04-21T03:48:01;97950.03;;;1.39;100.00
53719;BME280;39616;48.872;9.390;2023-04-21T03:50:32;97948.94;;;1.40;100.00
53719;BME280;39616;48.872;9.390;2023-04-21T03:53:03;97943.94;;;1.43;100.00
53719;BME280;39616;48.872;9.390;2023-04-21T03:55:33;97946.38;;;1.45;100.00
53719;BME280;39616;48.872;9.390;2023-04-21T03:58:03;97964.00;;;1.46;100.00
53719;BME280;39616;48.872;9.390;2023-04-21T04:00:33;97954.75;;;1.54;100.00
53719;BME280;39616;48.872;9.390;2023-04-21T04:03:04;97952.91;;;1.54;100.00
53719;BME280;39616;48.872;9.390;2023-04-21T04:05:35;97954.28;;;1.57;100.00
53719;BME280;39616;48.872;9.390;2023-04-21T04:08:05;97948.63;;;1.53;100.00
53719;BME280;39616;48.872;9.390;2023-04-21T04:10:36;97949.09;;;1.50;100.00
53719;BME280;39616;48.872;9.390;2023-04-21T04:13:06;97967.50;;;1.47;100.00
53719;BME280;39616;48.872;9.390;2023-04-21T04:15:37;97975.66;;;1.40;100.00
53719;BME280;39616;48.872;9.390;2023-04-21T04:18:07;97968.41;;;1.35;100.00
53719;BME280;39616;48.872;9.390;2023-04-21T04:20:37;97964.38;;;1.33;100.00
53719;BME280;39616;48.872;9.390;2023-04-21T04:23:07;97959.09;;;1.38;100.00
53719;BME280;39616;48.872;9.390;2023-04-21T04:25:38;97966.38;;;1.42;100.00
53719;BME280;39616;48.872;9.390;2023-04-21T04:28:09;97967.81;;;1.50;100.00
53719;BME280;39616;48.872;9.390;2023-04-21T04:30:39;97970.56;;;1.55;100.00
53719;BME280;39616;48.872;9.390;2023-04-21T04:33:10;97962.56;;;1.55;100.00
53719;BME280;39616;48.872;9.390;2023-04-21T04:35:40;97966.25;;;1.54;100.00
53719;BME280;39616;48.872;9.390;2023-04-21T04:38:11;97970.56;;;1.55;100.00
53719;BME280;39616;48.872;9.390;2023-04-21T04:40:43;97961.53;;;1.61;100.00
53719;BME280;39616;48.872;9.390;2023-04-21T04:43:14;97964.22;;;1.61;100.00
53719;BME280;39616;48.872;9.390;2023-04-21T04:45:45;97965.59;;;1.64;100.00
53719;BME280;39616;48.872;9.390;2023-04-21T04:48:16;97965.97;;;1.73;100.00
53719;BME280;39616;48.872;9.390;2023-04-21T04:50:46;97976.25;;;1.81;100.00
53719;BME280;39616;48.872;9.390;2023-04-21T04:53:17;97967.00;;;1.88;100.00
53719;BME280;39616;48.872;9.390;2023-04-21T04:55:47;97969.75;;;1.99;100.00
53719;BME280;39616;48.872;9.390;2023-04-21T04:58:17;97979.66;;;1.98;100.00
53719;BME280;39616;48.872;9.390;2023-04-21T05:00:48;97992.63;;;2.06;100.00
53719;BME280;39616;48.872;9.390;2023-04-21T05:03:18;97997.88;;;2.23;100.00
53719;BME280;39616;48.872;9.390;2023-04-21T05:05:48;97976.91;;;2.37;100.00
53719;BME280;39616;48.872;9.390;2023-04-21T05:08:18;97970.00;;;2.46;100.00
53719;BME280;39616;48.872;9.390;2023-04-21T05:10:49;97980.34;;;2.59;100.00
53719;BME280;39616;48.872;9.390;2023-04-21T05:13:21;97991.97;;;2.75;100.00
53719;BME280;39616;48.872;9.390;2023-04-21T05:15:56;97991.28;;;2.85;100.00
53719;BME280;39616;48.872;9.390;2023-04-21T05:18:28;97984.63;;;2.87;100.00
53719;BME280;39616;48.872;9.390;2023-04-21T05:20:58;97976.03;;;2.90;100.00
53719;BME280;39616;48.872;9.390;2023-04-21T05:23:28;97981.16;;;2.92;100.00
53719;BME280;39616;48.872;9.390;2023-04-21T05:25:59;97985.47;;;2.98;100.00
53719;BME280;39616;48.872;9.390;2023-04-21T05:28:29;97989.22;;;2.97;100.00
53719;BME280;39616;48.872;9.390;2023-04-21T05:31:00;97999.47;;;3.05;100.00
53719;BME280;39616;48.872;9.390;2023-04-21T05:33:31;97996.78;;;3.05;100.00
53719;BME280;39616;48.872;9.390;2023-04-21T05:36:06;97999.28;;;3.12;100.00
53719;BME280;39616;48.872;9.390;2023-04-21T05:38:36;98004.41;;;3.19;100.00
53719;BME280;39616;48.872;9.390;2023-04-21T05:41:07;98007.41;;;3.27;100.00
53719;BME280;39616;48.872;9.390;2023-04-21T05:43:37;98004.59;;;3.39;100.00
53719;BME280;39616;48.872;9.390;2023-04-21T05:46:08;98003.59;;;3.50;100.00
53719;BME280;39616;48.872;9.390;2023-04-21T05:48:39;97996.94;;;3.58;100.00
53719;BME280;39616;48.872;9.390;2023-04-21T05:51:12;97992.38;;;3.63;100.00
53719;BME280;39616;48.872;9.390;2023-04-21T05:53:43;97991.66;;;3.73;100.00
53719;BME280;39616;48.872;9.390;2023-04-21T05:56:14;97994.84;;;3.75;100.00
53719;BME280;39616;48.872;9.390;2023-04-21T05:58:44;97980.19;;;3.88;100.00
53719;BME280;39616;48.872;9.390;2023-04-21T06:01:14;97978.34;;;3.99;100.00
53719;BME280;39616;48.872;9.390;2023-04-21T06:03:45;97973.84;;;4.09;100.00
53719;BME280;39616;48.872;9.390;2023-04-21T06:06:17;97966.59;;;4.10;100.00
53719;BME280;39616;48.872;9.390;2023-04-21T06:08:48;97981.16;;;4.24;100.00
53719;BME280;39616;48.872;9.390;2023-04-21T06:11:18;97975.53;;;4.36;100.00
53719;BME280;39616;48.872;9.390;2023-04-21T06:13:49;97968.28;;;4.36;100.00
53719;BME280;39616;48.872;9.390;2023-04-21T06:16:19;97958.91;;;4.39;100.00
53719;BME280;39616;48.872;9.390;2023-04-21T06:18:50;97961.63;;;4.59;100.00
53719;BME280;39616;48.872;9.390;2023-04-21T06:21:20;97964.59;;;4.73;100.00
53719;BME280;39616;48.872;9.390;2023-04-21T06:23:50;97958.16;;;4.84;100.00
53719;BME280;39616;48.872;9.390;2023-04-21T06:26:21;97960.59;;;5.01;100.00
53719;BME280;39616;48.872;9.390;2023-04-21T06:28:51;97958.16;;;5.20;100.00
53719;BME280;39616;48.872;9.390;2023-04-21T06:31:21;97960.28;;;5.28;100.00
53719;BME280;39616;48.872;9.390;2023-04-21T06:33:51;97958.41;;;5.39;100.00
53719;BME280;39616;48.872;9.390;2023-04-21T06:36:22;97957.59;;;5.49;100.00
53719;BME280;39616;48.872;9.390;2023-04-21T06:38:52;97962.16;;;5.53;100.00
53719;BME280;39616;48.872;9.390;2023-04-21T06:41:22;97967.50;;;5.64;100.00
53719;BME280;39616;48.872;9.390;2023-04-21T06:43:53;97966.41;;;5.65;100.00
53719;BME280;39616;48.872;9.390;2023-04-21T06:46:23;97968.31;;;5.64;100.00
53719;BME280;39616;48.872;9.390;2023-04-21T06:48:53;97964.28;;;5.56;100.00
53719;BME280;39616;48.872;9.390;2023-04-21T06:51:24;97975.59;;;5.53;100.00
53719;BME280;39616;48.872;9.390;2023-04-21T06:53:54;97983.91;;;5.67;100.00
53719;BME280;39616;48.872;9.390;2023-04-21T06:56:28;97993.25;;;5.90;100.00
53719;BME280;39616;48.872;9.390;2023-04-21T06:58:59;97995.81;;;6.31;100.00
53719;BME280;39616;48.872;9.390;2023-04-21T07:01:29;97987.16;;;6.44;100.00
53719;BME280;39616;48.872;9.390;2023-04-21T07:04:02;97974.19;;;6.91;100.00
53719;BME280;39616;48.872;9.390;2023-04-21T07:06:33;97972.69;;;6.74;100.00
53719;BME280;39616;48.872;9.390;2023-04-21T07:09:03;97963.31;;;6.62;100.00
53719;BME280;39616;48.872;9.390;2023-04-21T07:11:34;97966.31;;;6.60;100.00
53719;BME280;39616;48.872;9.390;2023-04-21T07:14:05;97950.16;;;6.55;100.00
53719;BME280;39616;48.872;9.390;2023-04-21T07:16:35;97960.69;;;6.51;100.00
53719;BME280;39616;48.872;9.390;2023-04-21T07:19:06;97952.56;;;6.62;100.00
53719;BME280;39616;48.872;9.390;2023-04-21T07:21:36;97952.56;;;6.62;100.00
53719;BME280;39616;48.872;9.390;2023-04-21T07:24:06;97941.97;;;6.75;100.00
53719;BME280;39616;48.872;9.390;2023-04-21T07:26:37;97951.69;;;6.71;100.00
53719;BME280;39616;48.872;9.390;2023-04-21T07:29:07;97950.69;;;6.96;100.00
53719;BME280;39616;48.872;9.390;2023-04-21T07:31:37;97943.66;;;7.00;100.00
53719;BME280;39616;48.872;9.390;2023-04-21T07:34:08;97936.19;;;6.92;100.00
53719;BME280;39616;48.872;9.390;2023-04-21T07:36:38;97932.78;;;7.11;100.00
53719;BME280;39616;48.872;9.390;2023-04-21T07:39:08;97935.94;;;7.18;100.00
53719;BME280;39616;48.872;9.390;2023-04-21T07:41:39;97930.53;;;7.23;100.00
53719;BME280;39616;48.872;9.390;2023-04-21T07:44:09;97931.94;;;7.15;100.00
53719;BME280;39616;48.872;9.390;2023-04-21T07:46:39;97927.25;;;7.26;100.00
53719;BME280;39616;48.872;9.390;2023-04-21T07:49:10;97932.34;;;7.28;100.00
53719;BME280;39616;48.872;9.390;2023-04-21T07:51:40;97926.78;;;7.19;100.00
53719;BME280;39616;48.872;9.390;2023-04-21T07:54:10;97928.38;;;7.20;100.00
53719;BME280;39616;48.872;9.390;2023-04-21T07:56:41;97922.94;;;7.25;100.00
53719;BME280;39616;48.872;9.390;2023-04-21T07:59:11;97925.97;;;7.47;100.00
53719;BME280;39616;48.872;9.390;2023-04-21T08:01:41;97922.59;;;7.85;100.00
53719;BME280;39616;48.872;9.390;2023-04-21T08:04:12;97921.00;;;8.03;100.00
53719;BME280;39616;48.872;9.390;2023-04-21T08:06:42;97920.81;;;7.99;100.00
53719;BME280;39616;48.872;9.390;2023-04-21T08:09:12;97927.97;;;8.28;100.00
53719;BME280;39616;48.872;9.390;2023-04-21T08:11:43;97929.09;;;8.64;100.00
53719;BME280;39616;48.872;9.390;2023-04-21T08:14:13;97932.75;;;8.92;100.00
53719;BME280;39616;48.872;9.390;2023-04-21T08:16:44;97940.28;;;9.28;99.86
53719;BME280;39616;48.872;9.390;2023-04-21T08:19:14;97929.19;;;9.57;95.87
53719;BME280;39616;48.872;9.390;2023-04-21T08:21:44;97932.09;;;9.61;91.47
53719;BME280;39616;48.872;9.390;2023-04-21T08:24:15;97929.38;;;10.44;90.79
53719;BME280;39616;48.872;9.390;2023-04-21T08:26:46;97925.66;;;10.53;87.68
53719;BME280;39616;48.872;9.390;2023-04-21T08:29:16;97934.69;;;10.71;85.43
53719;BME280;39616;48.872;9.390;2023-04-21T08:31:46;97919.56;;;10.93;84.05
53719;BME280;39616;48.872;9.390;2023-04-21T08:34:17;97922.69;;;11.31;82.87
53719;BME280;39616;48.872;9.390;2023-04-21T08:36:48;97923.91;;;11.56;81.65
53719;BME280;39616;48.872;9.390;2023-04-21T08:39:19;97923.19;;;12.04;78.02
53719;BME280;39616;48.872;9.390;2023-04-21T08:41:49;97929.97;;;12.32;76.87
53719;BME280;39616;48.872;9.390;2023-04-21T08:44:20;97921.03;;;12.58;75.49
53719;BME280;39616;48.872;9.390;2023-04-21T08:46:50;97919.47;;;12.74;74.07
53719;BME280;39616;48.872;9.390;2023-04-21T08:49:21;97918.94;;;13.24;72.21
53719;BME280;39616;48.872;9.390;2023-04-21T08:51:52;97915.69;;;13.48;72.08
53719;BME280;39616;48.872;9.390;2023-04-21T08:54:22;97929.03;;;13.24;70.81
53719;BME280;39616;48.872;9.390;2023-04-21T08:56:52;97921.97;;;13.23;71.03
53719;BME280;39616;48.872;9.390;2023-04-21T08:59:22;97920.38;;;13.13;71.78
53719;BME280;39616;48.872;9.390;2023-04-21T09:02:10;97916.09;;;13.03;71.03
53719;BME280;39616;48.872;9.390;2023-04-21T09:04:43;97905.72;;;13.61;70.67
53719;BME280;39616;48.872;9.390;2023-04-21T09:07:34;97921.69;;;13.33;68.38
53719;BME280;39616;48.872;9.390;2023-04-21T09:10:05;97909.09;;;13.58;69.76
53719;BME280;39616;48.872;9.390;2023-04-21T09:12:38;97917.94;;;13.46;67.92
53719;BME280;39616;48.872;9.390;2023-04-21T09:15:09;97907.41;;;13.19;68.98
53719;BME280;39616;48.872;9.390;2023-04-21T09:17:44;97903.78;;;13.62;67.70
53719;BME280;39616;48.872;9.390;2023-04-21T09:20:17;97907.44;;;13.74;68.98
53719;BME280;39616;48.872;9.390;2023-04-21T09:22:48;97917.41;;;14.00;67.06
53719;BME280;39616;48.872;9.390;2023-04-21T09:25:22;97909.59;;;13.90;68.23
53719;BME280;39616;48.872;9.390;2023-04-21T09:27:52;97904.53;;;14.09;67.69
53719;BME280;39616;48.872;9.390;2023-04-21T09:30:23;97899.31;;;13.57;69.25
53719;BME280;39616;48.872;9.390;2023-04-21T09:32:57;97910.78;;;13.16;69.97
53719;BME280;39616;48.872;9.390;2023-04-21T09:35:35;97900.03;;;13.11;70.98
53719;BME280;39616;48.872;9.390;2023-04-21T09:38:10;97903.47;;;12.64;72.03
53719;BME280;39616;48.872;9.390;2023-04-21T09:40:41;97907.44;;;12.58;72.23
53719;BME280;39616;48.872;9.390;2023-04-21T09:43:11;97901.31;;;13.22;70.22
53719;BME280;39616;48.872;9.390;2023-04-21T09:45:41;97911.19;;;13.91;68.61
53719;BME280;39616;48.872;9.390;2023-04-21T09:48:13;97900.06;;;14.76;67.25
53719;BME280;39616;48.872;9.390;2023-04-21T09:50:46;97901.75;;;15.22;64.48
53719;BME280;39616;48.872;9.390;2023-04-21T09:53:20;97904.38;;;14.98;64.45
53719;BME280;39616;48.872;9.390;2023-04-21T09:55:55;97898.53;;;15.20;65.33
53719;BME280;39616;48.872;9.390;2023-04-21T09:58:33;97897.00;;;15.32;64.01
53719;BME280;39616;48.872;9.390;2023-04-21T10:01:06;97889.22;;;15.67;63.10
53719;BME280;39616;48.872;9.390;2023-04-21T10:03:38;97884.00;;;16.11;62.22
53719;BME280;39616;48.872;9.390;2023-04-21T10:06:10;97880.34;;;16.31;60.86
53719;BME280;39616;48.872;9.390;2023-04-21T10:08:41;97882.47;;;16.38;60.52
53719;BME280;39616;48.872;9.390;2023-04-21T10:11:13;97879.78;;;16.01;62.67
53719;BME280;39616;48.872;9.390;2023-04-21T10:13:44;97879.19;;;16.32;61.53
53719;BME280;39616;48.872;9.390;2023-04-21T10:16:16;97872.75;;;16.53;60.31
53719;BME280;39616;48.872;9.390;2023-04-21T10:18:47;97865.06;;;16.18;60.69
53719;BME280;39616;48.872;9.390;2023-04-21T10:21:18;97860.63;;;16.01;61.66
53719;BME280;39616;48.872;9.390;2023-04-21T10:23:51;97852.31;;;16.10;61.02
53719;BME280;39616;48.872;9.390;2023-04-21T10:26:24;97846.47;;;16.36;61.62
53719;BME280;39616;48.872;9.390;2023-04-21T10:29:00;97852.91;;;16.03;61.41
53719;BME280;39616;48.872;9.390;2023-04-21T10:34:14;97853.81;;;15.83;61.72
53719;BME280;39616;48.872;9.390;2023-04-21T10:39:45;97848.47;;;15.74;62.63
53719;BME280;39616;48.872;9.390;2023-04-21T10:42:27;97856.31;;;16.00;61.79
53719;BME280;39616;48.872;9.390;2023-04-21T10:47:34;97847.38;;;16.80;62.79
53719;BME280;39616;48.872;9.390;2023-04-21T10:50:28;97838.09;;;16.85;61.59
53719;BME280;39616;48.872;9.390;2023-04-21T10:53:08;97839.69;;;17.30;59.16
53719;BME280;39616;48.872;9.390;2023-04-21T10:55:39;97837.69;;;16.71;59.50
53719;BME280;39616;48.872;9.390;2023-04-21T10:58:14;97836.56;;;17.15;59.18
53719;BME280;39616;48.872;9.390;2023-04-21T11:00:45;97858.16;;;16.89;58.81
53719;BME280;39616;48.872;9.390;2023-04-21T11:03:16;97850.75;;;16.49;59.42
53719;BME280;39616;48.872;9.390;2023-04-21T11:05:46;97838.88;;;16.57;59.18
53719;BME280;39616;48.872;9.390;2023-04-21T11:08:17;97843.84;;;16.80;60.00
53719;BME280;39616;48.872;9.390;2023-04-21T11:10:54;97835.25;;;16.53;60.27
53719;BME280;39616;48.872;9.390;2023-04-21T11:13:26;97831.19;;;16.75;60.15
53719;BME280;39616;48.872;9.390;2023-04-21T11:16:05;97827.34;;;16.92;60.36
53719;BME280;39616;48.872;9.390;2023-04-21T11:18:43;97825.28;;;17.33;59.88
53719;BME280;39616;48.872;9.390;2023-04-21T11:21:15;97822.63;;;17.36;58.64
53719;BME280;39616;48.872;9.390;2023-04-21T11:23:54;97823.44;;;17.37;58.39
53719;BME280;39616;48.872;9.390;2023-04-21T11:26:32;97821.03;;;17.67;58.13
53719;BME280;39616;48.872;9.390;2023-04-21T11:29:05;97825.38;;;17.21;60.87
53719;BME280;39616;48.872;9.390;2023-04-21T11:31:38;97822.13;;;17.31;59.30
53719;BME280;39616;48.872;9.390;2023-04-21T11:34:09;97822.94;;;17.03;59.74
53719;BME280;39616;48.872;9.390;2023-04-21T11:36:43;97821.84;;;17.36;58.70
53719;BME280;39616;48.872;9.390;2023-04-21T11:39:16;97821.38;;;16.74;60.96
53719;BME280;39616;48.872;9.390;2023-04-21T11:41:50;97812.88;;;16.92;58.64
53719;BME280;39616;48.872;9.390;2023-04-21T11:44:35;97808.84;;;17.01;59.47
53719;BME280;39616;48.872;9.390;2023-04-21T11:47:12;97793.47;;;17.44;58.74
53719;BME280;39616;48.872;9.390;2023-04-21T11:49:48;97805.56;;;17.59;59.14
53719;BME280;39616;48.872;9.390;2023-04-21T11:52:23;97797.09;;;17.80;58.20
53719;BME280;39616;48.872;9.390;2023-04-21T11:54:57;97801.25;;;17.90;57.37
53719;BME280;39616;48.872;9.390;2023-04-21T11:57:29;97796.97;;;17.92;57.57
53719;BME280;39616;48.872;9.390;2023-04-21T12:00:03;97797.41;;;17.94;55.76
53719;BME280;39616;48.872;9.390;2023-04-21T12:02:35;97800.16;;;17.62;57.00
53719;BME280;39616;48.872;9.390;2023-04-21T12:05:07;97792.56;;;17.56;58.40
53719;BME280;39616;48.872;9.390;2023-04-21T12:07:41;97797.97;;;17.21;59.48
53719;BME280;39616;48.872;9.390;2023-04-21T12:10:14;97795.31;;;17.40;59.72
53719;BME280;39616;48.872;9.390;2023-04-21T12:12:46;97789.94;;;17.44;60.03
53719;BME280;39616;48.872;9.390;2023-04-21T12:15:18;97789.72;;;17.52;59.05
53719;BME280;39616;48.872;9.390;2023-04-21T12:17:51;97789.41;;;17.54;59.36
53719;BME280;39616;48.872;9.390;2023-04-21T12:20:23;97783.19;;;17.73;59.60
53719;BME280;39616;48.872;9.390;2023-04-21T12:22:54;97780.81;;;17.87;57.59
53719;BME280;39616;48.872;9.390;2023-04-21T12:25:25;97777.75;;;18.08;58.75
53719;BME280;39616;48.872;9.390;2023-04-21T12:27:58;97782.91;;;17.94;58.54
53719;BME280;39616;48.872;9.390;2023-04-21T12:30:29;97769.78;;;18.03;57.32
53719;BME280;39616;48.872;9.390;2023-04-21T12:32:59;97773.63;;;18.18;57.32
53719;BME280;39616;48.872;9.390;2023-04-21T12:35:30;97771.94;;;17.94;57.38
53719;BME280;39616;48.872;9.390;2023-04-21T12:38:02;97767.78;;;18.19;56.86
53719;BME280;39616;48.872;9.390;2023-04-21T12:40:32;97768.59;;;17.84;56.66
53719;BME280;39616;48.872;9.390;2023-04-21T12:43:03;97757.09;;;18.14;57.88
53719;BME280;39616;48.872;9.390;2023-04-21T12:45:33;97763.66;;;18.29;57.04
53719;BME280;39616;48.872;9.390;2023-04-21T12:48:04;97750.47;;;18.34;55.36
53719;BME280;39616;48.872;9.390;2023-04-21T12:50:35;97748.66;;;18.42;56.40
53719;BME280;39616;48.872;9.390;2023-04-21T12:53:06;97754.69;;;18.51;55.85
53719;BME280;39616;48.872;9.390;2023-04-21T12:55:36;97735.72;;;18.43;55.03
53719;BME280;39616;48.872;9.390;2023-04-21T12:58:07;97740.41;;;18.42;55.97
53719;BME280;39616;48.872;9.390;2023-04-21T13:00:37;97731.91;;;18.28;56.74
53719;BME280;39616;48.872;9.390;2023-04-21T13:03:07;97728.41;;;17.92;57.58
53719;BME280;39616;48.872;9.390;2023-04-21T13:05:38;97732.69;;;18.09;58.85
53719;BME280;39616;48.872;9.390;2023-04-21T13:08:08;97730.00;;;18.32;57.41
53719;BME280;39616;48.872;9.390;2023-04-21T13:10:39;97724.09;;;18.30;57.28
53719;BME280;39616;48.872;9.390;2023-04-21T13:13:09;97728.94;;;18.17;57.35
53719;BME280;39616;48.872;9.390;2023-04-21T13:15:39;97724.22;;;18.18;59.38
53719;BME280;39616;48.872;9.390;2023-04-21T13:18:09;97717.81;;;18.49;58.12
53719;BME280;39616;48.872;9.390;2023-04-21T13:20:40;97718.50;;;18.65;56.73
53719;BME280;39616;48.872;9.390;2023-04-21T13:23:10;97716.66;;;18.30;56.47
53719;BME280;39616;48.872;9.390;2023-04-21T13:25:43;97715.19;;;18.75;56.52
53719;BME280;39616;48.872;9.390;2023-04-21T13:28:17;97714.66;;;18.89;55.92
53719;BME280;39616;48.872;9.390;2023-04-21T13:30:50;97715.84;;;18.92;56.11